Time;durP1;ratioP1;P1;durP2;ratioP2;P2;SDS_P1;SDS_P2;PMS_P1;PMS_P2;Temp;Humidity;BMP_temperature;BMP_pressure;BME280_temperature;BME280_humidity;BME280_pressure;Samples;Min_cycle;Max_cycle;Signal;HPM_P1;HPM_P2
2020/12/04 00:00:36;;;;;;;40.15;22.30;;;;;;;-1.66;87.42;101299.70;1744712;82;21315;-79
2020/12/04 00:03:42;;;;;;;50.67;34.48;;;;;;;-1.62;87.39;101295.94;1758230;81;21821;-78
2020/12/04 00:06:48;;;;;;;40.73;26.80;;;;;;;-1.66;87.29;101301.05;1745842;82;21751;-78
2020/12/04 00:09:53;;;;;;;51.37;34.27;;;;;;;-1.66;87.42;101300.57;1757775;81;21188;-79
2020/12/04 00:12:58;;;;;;;37.10;22.35;;;;;;;-1.60;87.47;101309.69;1745218;82;21369;-79
2020/12/04 02:25:00;;;;;;;44.25;28.35;;;;;;;-1.35;88.74;101284.33;1783691;79;21272;-78
2020/12/04 02:28:06;;;;;;;60.30;35.73;;;;;;;-1.32;88.65;101279.68;1790386;80;21197;-78
2020/12/04 02:31:12;;;;;;;48.65;30.80;;;;;;;-1.32;88.56;101278.34;1790730;80;21764;-78
2020/12/04 02:34:17;;;;;;;49.18;29.65;;;;;;;-1.30;88.54;101275.56;1792100;80;21909;-78
2020/12/04 02:37:24;;;;;;;41.92;23.32;;;;;;;-1.30;88.46;101282.28;1791487;80;21216;-78
2020/12/04 02:40:30;;;;;;;47.27;27.50;;;;;;;-1.31;88.51;101289.94;1791615;80;21918;-78
2020/12/04 02:43:36;;;;;;;48.28;23.92;;;;;;;-1.32;88.57;101278.78;1792280;80;21508;-78
2020/12/04 02:46:41;;;;;;;43.95;27.22;;;;;;;-1.36;88.57;101277.23;1795102;79;21332;-80
2020/12/04 02:49:46;;;;;;;78.75;53.08;;;;;;;-1.38;88.63;101279.09;1792230;80;21368;-79
2020/12/04 02:52:51;;;;;;;55.28;32.70;;;;;;;-1.40;88.78;101279.19;1792387;80;21367;-80
2020/12/04 02:55:58;;;;;;;45.30;25.37;;;;;;;-1.38;88.87;101283.98;1792282;80;21360;-78
2020/12/04 02:59:04;;;;;;;51.13;26.95;;;;;;;-1.36;88.96;101282.11;1794823;79;21784;-78
2020/12/04 03:02:11;;;;;;;48.00;28.27;;;;;;;-1.37;89.00;101277.67;1792588;80;21347;-78
2020/12/04 03:05:16;;;;;;;44.85;25.15;;;;;;;-1.39;89.08;101274.20;1791191;80;21307;-78
2020/12/04 03:08:25;;;;;;;45.95;24.77;;;;;;;-1.35;89.19;101270.43;1792287;80;21185;-79
2020/12/04 03:11:30;;;;;;;54.58;30.52;;;;;;;-1.35;89.19;101257.01;1791374;80;21307;-78
2020/12/04 03:14:37;;;;;;;55.73;28.40;;;;;;;-1.37;89.32;101252.17;1790963;79;21182;-78
2020/12/04 03:17:41;;;;;;;48.33;23.12;;;;;;;-1.40;89.42;101253.69;1792276;80;21343;-78
2020/12/04 03:20:48;;;;;;;47.85;27.62;;;;;;;-1.37;89.63;101248.14;1791121;80;21319;-78
2020/12/04 03:23:53;;;;;;;65.28;43.80;;;;;;;-1.34;89.66;101253.84;1792275;80;21157;-78
2020/12/04 03:27:00;;;;;;;51.33;33.10;;;;;;;-1.34;89.70;101257.88;1791732;80;21213;-78
2020/12/04 03:30:05;;;;;;;55.35;32.40;;;;;;;-1.36;89.75;101255.28;1791883;80;21367;-78
2020/12/04 03:33:10;;;;;;;57.60;34.00;;;;;;;-1.36;89.87;101247.70;1790553;80;21276;-78
2020/12/04 03:36:16;;;;;;;51.13;30.68;;;;;;;-1.36;89.89;101249.91;1791761;80;21212;-78
2020/12/04 03:39:22;;;;;;;57.30;38.38;;;;;;;-1.32;89.97;101258.20;1791892;80;21174;-78
2020/12/04 03:42:28;;;;;;;51.10;33.00;;;;;;;-1.22;89.97;101259.05;1790519;80;21316;-78
2020/12/04 03:45:35;;;;;;;43.13;23.70;;;;;;;-1.14;89.86;101259.53;1792007;80;21831;-78
2020/12/04 03:48:41;;;;;;;55.88;31.57;;;;;;;-1.09;89.61;101254.80;1791970;80;21285;-78
2020/12/04 03:51:53;;;;;;;55.15;36.42;;;;;;;-1.11;89.31;101263.42;1790582;80;21316;-78
2020/12/04 03:54:58;;;;;;;43.17;26.37;;;;;;;-1.12;89.10;101258.53;1792035;80;21185;-78
2020/12/04 03:58:04;;;;;;;48.52;29.10;;;;;;;-1.14;88.97;101256.85;1790576;80;21335;-78
2020/12/04 04:01:10;;;;;;;57.85;39.08;;;;;;;-1.17;88.86;101253.00;1790629;80;21209;-78
2020/12/04 04:04:15;;;;;;;49.80;26.45;;;;;;;-1.22;88.82;101250.55;1792131;80;21281;-78
2020/12/04 04:07:21;;;;;;;49.08;25.82;;;;;;;-1.25;88.88;101248.02;1792166;80;21343;-78
2020/12/04 04:10:27;;;;;;;49.42;30.48;;;;;;;-1.26;89.01;101246.76;1792015;80;21321;-78
2020/12/04 04:13:32;;;;;;;52.40;27.15;;;;;;;-1.27;89.09;101247.23;1791887;80;21295;-78
2020/12/04 04:16:39;;;;;;;48.92;29.98;;;;;;;-1.29;89.16;101260.71;1792053;80;21831;-79
2020/12/04 04:19:45;;;;;;;44.35;26.80;;;;;;;-1.26;89.22;101262.39;1791800;80;21158;-78
2020/12/04 04:22:50;;;;;;;40.30;22.98;;;;;;;-1.26;89.14;101250.78;1790633;80;21288;-78
2020/12/04 04:25:57;;;;;;;45.88;28.60;;;;;;;-1.29;89.04;101255.34;1790633;80;21240;-78
2020/12/04 04:29:02;;;;;;;50.80;34.88;;;;;;;-1.31;88.99;101255.91;1790841;80;21851;-79
2020/12/04 04:32:09;;;;;;;46.13;26.82;;;;;;;-1.32;89.04;101267.60;1790474;80;21331;-78
2020/12/04 04:35:15;;;;;;;41.65;26.40;;;;;;;-1.32;89.16;101266.70;1790830;80;21280;-78
2020/12/04 04:38:21;;;;;;;40.28;21.07;;;;;;;-1.31;89.27;101265.30;1791440;80;21319;-78
2020/12/04 04:41:27;;;;;;;53.58;25.75;;;;;;;-1.31;89.30;101264.44;1791403;80;21201;-79
2020/12/04 04:44:34;;;;;;;56.80;36.23;;;;;;;-1.31;89.26;101264.44;1791292;80;21319;-78
2020/12/04 04:47:40;;;;;;;43.25;26.55;;;;;;;-1.33;89.22;101266.31;1792037;80;21173;-79
2020/12/04 04:50:48;;;;;;;49.03;30.43;;;;;;;-1.37;89.19;101266.06;1792437;78;21158;-78
2020/12/04 04:53:54;;;;;;;48.80;28.35;;;;;;;-1.41;89.20;101266.72;1793469;78;21282;-79
2020/12/04 04:57:00;;;;;;;50.38;28.95;;;;;;;-1.38;89.31;101267.02;1792503;79;21205;-78
2020/12/04 05:00:06;;;;;;;45.88;26.77;;;;;;;-1.38;89.31;101270.57;1797830;79;21212;-78
2020/12/04 05:03:14;;;;;;;43.40;26.48;;;;;;;-1.32;89.34;101277.00;1791311;80;21397;-78
2020/12/04 05:06:20;;;;;;;53.95;32.40;;;;;;;-1.32;89.22;101272.97;1791959;80;21726;-78
2020/12/04 05:09:30;;;;;;;52.50;31.42;;;;;;;-1.35;89.13;101276.27;1792367;78;21187;-79
2020/12/04 05:12:35;;;;;;;43.02;25.50;;;;;;;-1.40;89.21;101267.11;1794698;79;21261;-78
2020/12/04 05:15:40;;;;;;;52.45;27.48;;;;;;;-1.37;89.23;101277.67;1801284;79;21296;-78
2020/12/04 05:18:47;;;;;;;54.50;35.63;;;;;;;-1.34;89.24;101285.58;1802497;79;21165;-78
2020/12/04 05:21:52;;;;;;;48.55;29.37;;;;;;;-1.35;89.14;101281.64;1802529;79;21201;-78
2020/12/04 05:24:58;;;;;;;49.30;30.10;;;;;;;-1.36;89.07;101290.17;1800580;78;21272;-78
2020/12/04 05:28:05;;;;;;;46.90;26.85;;;;;;;-1.34;88.95;101303.03;1791928;79;21313;-78
2020/12/04 05:31:17;;;;;;;47.40;25.12;;;;;;;-1.37;88.83;101287.06;1773703;78;21248;-78
2020/12/04 05:34:29;;;;;;;52.00;33.55;;;;;;;-1.37;88.82;101287.06;1794738;78;21818;-78
2020/12/04 05:37:36;;;;;;;44.67;24.15;;;;;;;-1.36;88.84;101285.28;1805115;78;21284;-78
2020/12/04 05:40:45;;;;;;;43.38;24.23;;;;;;;-1.34;88.91;101300.34;1795438;78;21252;-78
2020/12/04 05:43:45;;;;;;;42.85;23.92;;;;;;;-1.32;88.72;101307.86;1796773;78;21311;-78
2020/12/04 05:47:01;;;;;;;41.83;25.37;;;;;;;-1.34;88.46;101303.03;1795637;78;21216;-78
2020/12/04 05:50:08;;;;;;;42.45;27.40;;;;;;;-1.39;88.09;101313.12;1804756;77;21847;-77
2020/12/04 05:53:13;;;;;;;54.67;31.15;;;;;;;-1.48;87.88;101313.58;1797323;78;21303;-77
2020/12/04 05:56:21;;;;;;;42.20;26.15;;;;;;;-1.47;87.95;101308.59;1787072;78;21192;-79
2020/12/04 05:59:29;;;;;;;43.28;23.77;;;;;;;-1.44;88.04;101313.83;1789574;78;21899;-79
2020/12/04 06:02:35;;;;;;;47.65;26.60;;;;;;;-1.41;88.02;101321.73;1793174;78;21339;-77
2020/12/04 06:05:44;;;;;;;35.28;22.65;;;;;;;-1.40;87.99;101316.76;1790530;78;21283;-78
2020/12/04 06:08:53;;;;;;;42.85;27.60;;;;;;;-1.37;87.92;101319.75;1798783;77;21986;-77
2020/12/04 06:11:59;;;;;;;45.30;28.73;;;;;;;-1.35;87.77;101324.11;1797861;78;21288;-77
2020/12/04 06:15:30;;;;;;;39.95;21.90;;;;;;;-1.35;87.63;101326.80;1793214;77;21497;-77
2020/12/04 06:18:39;;;;;;;46.65;24.35;;;;;;;-1.36;87.59;101323.72;1789601;78;21251;-77
2020/12/04 06:22:01;;;;;;;53.05;29.98;;;;;;;-1.31;87.52;101332.41;1791237;78;21335;-80
2020/12/04 06:25:49;;;;;;;;;;;;;;;;;;;;;
2020/12/04 06:33:25;;;;;;;;;;;;;;;;;;;;;
2020/12/04 06:37:25;;;;;;;43.33;26.62;;;;;;;-1.24;86.91;101352.23;1797292;77;21161;-78
2020/12/04 06:40:52;;;;;;;43.52;25.57;;;;;;;-1.19;86.41;101352.39;1743802;80;21167;-79
2020/12/04 06:58:45;;;;;;;38.98;23.65;;;;;;;-1.08;86.08;101355.91;1826702;77;21196;-79
2020/12/04 07:02:26;;;;;;;44.18;26.27;;;;;;;-1.11;85.90;101354.72;1835826;77;21148;-80
2020/12/04 07:06:03;;;;;;;39.08;24.18;;;;;;;-1.12;85.59;101347.14;1825822;76;22406;-78
2020/12/04 07:09:43;;;;;;;49.70;28.47;;;;;;;-1.19;85.63;101351.53;1788952;77;21211;-79
2020/12/04 07:13:16;;;;;;;47.62;29.65;;;;;;;-1.21;85.50;101344.91;1728633;80;21223;-79
2020/12/04 07:16:41;;;;;;;55.92;35.48;;;;;;;-1.19;85.56;101350.19;1723950;80;21303;-79
2020/12/04 07:20:06;;;;;;;36.90;20.95;;;;;;;-1.17;85.73;101355.89;1694989;81;21217;-78
2020/12/04 07:23:15;;;;;;;;;;;;;;;-1.13;85.70;101357.93;1788588;77;21854;-79
2020/12/04 07:26:25;;;;;;;47.43;25.90;;;;;;;-1.14;85.60;101357.54;1794195;78;20294;-78
2020/12/04 07:29:30;;;;;;;45.65;31.75;;;;;;;-1.14;85.52;101358.41;1737087;80;21271;-79
2020/12/04 07:32:37;;;;;;;49.75;30.15;;;;;;;-1.14;85.42;101359.75;1733414;81;21353;-78
2020/12/04 07:35:43;;;;;;;48.70;31.77;;;;;;;-1.11;85.52;101361.42;1780717;78;21329;-78
2020/12/04 07:39:03;;;;;;;41.48;26.57;;;;;;;-1.08;85.43;101358.60;1701260;82;21230;-81
2020/12/04 07:42:10;;;;;;;44.70;27.17;;;;;;;-1.06;85.28;101353.53;1757327;79;21394;-80
2020/12/04 07:45:24;;;;;;;49.30;30.55;;;;;;;-1.07;85.10;101350.94;1704603;82;21381;-80
2020/12/04 07:48:29;;;;;;;40.00;21.50;;;;;;;-1.06;85.10;101349.98;1688544;82;22708;-78
2020/12/04 07:51:35;;;;;;;42.78;26.70;;;;;;;-1.01;85.16;101363.17;1695360;82;21292;-79
2020/12/04 07:54:41;;;;;;;41.68;21.17;;;;;;;-0.96;85.07;101366.50;1726599;81;21228;-81
2020/12/04 07:58:11;;;;;;;36.77;21.40;;;;;;;-0.99;84.62;101363.48;1734418;80;21327;-79
2020/12/04 08:01:18;;;;;;;39.90;22.42;;;;;;;-0.98;84.58;101357.19;1751904;79;21160;-79
2020/12/04 08:04:26;;;;;;;43.95;28.98;;;;;;;-1.00;84.51;101356.85;1701395;82;21358;-79
2020/12/04 08:07:40;;;;;;;44.42;29.07;;;;;;;-0.98;84.39;101367.06;1753339;80;21324;-79
2020/12/04 08:10:47;;;;;;;40.78;21.50;;;;;;;-0.96;84.23;101365.16;1756340;79;21421;-79
2020/12/04 08:14:03;;;;;;;50.65;36.58;;;;;;;-0.85;84.26;101369.50;1760389;79;21334;-78
2020/12/04 08:17:34;;;;;;;33.30;18.75;;;;;;;-0.78;83.50;101366.92;1763163;79;21248;-81
2020/12/04 08:20:45;;;;;;;41.83;25.95;;;;;;;-0.80;82.85;101371.03;1763349;79;22313;-80
2020/12/04 08:23:54;;;;;;;49.13;28.00;;;;;;;-0.71;82.80;101363.43;1709825;82;21394;-81
2020/12/04 08:27:12;;;;;;;42.55;22.40;;;;;;;-0.66;82.17;101364.95;1691773;82;21395;-79
2020/12/04 08:30:23;;;;;;;40.58;21.27;;;;;;;-0.65;81.83;101360.45;1753755;79;21326;-79
2020/12/04 08:33:29;;;;;;;42.45;24.75;;;;;;;-0.58;81.66;101357.83;1753968;79;21291;-79
2020/12/04 08:36:34;;;;;;;37.20;23.00;;;;;;;-0.49;81.09;101360.52;1721121;80;21547;-81
2020/12/04 08:39:57;;;;;;;36.48;19.82;;;;;;;-0.47;80.29;101358.59;1696114;82;21264;-79
2020/12/04 08:43:20;;;;;;;35.10;22.15;;;;;;;-0.44;80.37;101348.56;1692983;82;21894;-78
2020/12/04 08:46:26;;;;;;;35.80;18.60;;;;;;;-0.41;79.24;101364.55;1691237;81;21310;-78
2020/12/04 08:49:34;;;;;;;34.15;18.37;;;;;;;-0.44;79.06;101362.00;1753121;79;21370;-79
2020/12/04 08:52:47;;;;;;;30.60;17.27;;;;;;;-0.44;79.06;101359.31;1757538;79;21315;-78
2020/12/04 08:55:54;;;;;;;38.70;20.85;;;;;;;-0.41;78.87;101352.45;1748451;79;21282;-78
2020/12/04 08:59:07;;;;;;;40.50;28.75;;;;;;;-0.39;78.48;101355.91;1761129;79;21342;-79
2020/12/04 09:02:14;;;;;;;32.85;18.60;;;;;;;-0.37;78.50;101357.20;1703288;81;21899;-79
2020/12/04 09:05:25;;;;;;;38.20;21.62;;;;;;;-0.35;78.68;101356.14;1752911;79;21268;-80
2020/12/04 09:08:48;;;;;;;33.67;19.92;;;;;;;-0.36;78.28;101351.73;1748838;79;21401;-78
2020/12/04 09:11:58;;;;;;;34.05;17.62;;;;;;;-0.38;78.27;101348.70;1751096;79;21252;-78
2020/12/04 09:15:15;;;;;;;36.63;24.40;;;;;;;-0.38;78.61;101342.86;1738966;79;21228;-78
2020/12/04 09:18:25;;;;;;;31.70;19.92;;;;;;;-0.35;78.46;101344.53;1745166;79;22336;-79
2020/12/04 09:21:33;;;;;;;;;;;;;;;-0.29;78.51;101338.34;1760863;79;21279;-78
2020/12/04 09:24:41;;;;;;;40.80;29.77;;;;;;;-0.20;78.45;101334.28;1763984;79;20451;-78
2020/12/04 09:27:47;;;;;;;26.93;15.55;;;;;;;-0.12;78.43;101332.06;1758678;79;21275;-78
2020/12/04 09:30:55;;;;;;;29.07;18.17;;;;;;;-0.02;77.79;101332.43;1753926;79;21204;-78
2020/12/04 09:33:59;;;;;;;33.23;20.35;;;;;;;0.02;77.72;101332.66;1758340;79;21299;-78
2020/12/04 09:37:23;;;;;;;32.28;19.60;;;;;;;0.06;77.60;101312.71;1760702;79;21205;-78
2020/12/04 09:40:37;;;;;;;37.28;19.52;;;;;;;0.06;77.19;101318.57;1758098;79;21317;-79
2020/12/04 09:43:42;;;;;;;35.80;18.80;;;;;;;0.04;77.38;101319.98;1755242;79;21326;-79
2020/12/04 09:46:52;;;;;;;27.55;15.85;;;;;;;0.11;77.69;101324.56;1763173;79;21236;-78
2020/12/04 09:49:58;;;;;;;41.98;27.58;;;;;;;0.20;77.92;101328.95;1761721;79;21227;-78
2020/12/04 09:53:07;;;;;;;32.42;16.37;;;;;;;0.27;78.10;101324.56;1764815;79;21775;-79
2020/12/04 09:56:15;;;;;;;34.40;18.37;;;;;;;0.27;77.82;101320.05;1753723;79;21272;-79
2020/12/04 09:59:29;;;;;;;;;;;;;;;0.29;77.62;101322.67;1763549;79;22025;-79
2020/12/04 10:02:40;;;;;;;31.33;16.77;;;;;;;0.30;77.26;101321.72;1751371;79;20306;-79
2020/12/04 10:05:54;;;;;;;29.50;17.95;;;;;;;0.31;77.68;101306.81;1767125;79;21366;-78
2020/12/04 10:09:06;;;;;;;36.28;22.70;;;;;;;0.42;78.20;101308.41;1756012;79;21232;-77
2020/12/04 10:12:30;;;;;;;40.67;20.50;;;;;;;0.49;77.70;101299.53;1764624;79;21871;-78
2020/12/04 10:15:36;;;;;;;32.25;19.67;;;;;;;0.43;77.41;101299.41;1755711;79;21311;-79
2020/12/04 10:18:42;;;;;;;37.40;25.80;;;;;;;0.39;77.12;101295.63;1756604;79;21954;-79
2020/12/04 10:21:57;;;;;;;32.38;19.07;;;;;;;0.35;77.83;101304.34;1712854;80;21291;-79
2020/12/04 10:25:05;;;;;;;38.75;22.35;;;;;;;0.36;77.54;101301.17;1758439;79;21319;-80
2020/12/04 10:28:13;;;;;;;35.65;19.37;;;;;;;0.32;77.25;101295.58;1762729;79;21644;-80
2020/12/04 10:31:21;;;;;;;30.15;17.52;;;;;;;0.28;77.36;101298.04;1757921;79;21863;-79
2020/12/04 10:34:27;;;;;;;41.63;22.73;;;;;;;0.23;77.45;101296.47;1704592;82;21233;-79
2020/12/04 10:37:35;;;;;;;34.85;18.70;;;;;;;0.20;77.51;101292.62;1730734;81;21354;-78
2020/12/04 10:40:47;;;;;;;30.00;16.87;;;;;;;0.20;77.85;101300.70;1687192;82;21505;-78
2020/12/04 10:43:55;;;;;;;35.23;20.90;;;;;;;0.22;77.91;101303.30;1688663;82;21296;-79
2020/12/04 10:50:26;;;;;;;39.95;22.95;;;;;;;0.21;78.46;101307.81;1748648;79;21971;-80
2020/12/04 10:53:44;;;;;;;35.10;17.42;;;;;;;0.14;77.88;101298.36;1759688;79;21826;-79
2020/12/04 10:56:51;;;;;;;39.40;23.73;;;;;;;-0.03;78.05;101303.32;1756000;79;21396;-78
2020/12/04 10:59:57;;;;;;;29.65;15.85;;;;;;;-0.17;78.33;101310.41;1737789;79;21319;-78
2020/12/04 11:03:21;;;;;;;31.77;17.85;;;;;;;-0.31;79.04;101302.61;1754141;79;21672;-78
2020/12/04 11:06:28;;;;;;;33.83;16.80;;;;;;;-0.33;79.50;101300.94;1754068;79;21599;-79
2020/12/04 11:09:34;;;;;;;29.75;17.10;;;;;;;-0.33;79.58;101315.28;1752716;79;22086;-78
2020/12/04 11:12:39;;;;;;;35.83;19.62;;;;;;;-0.36;79.61;101311.40;1758216;79;21176;-77
2020/12/04 11:15:48;;;;;;;33.40;19.20;;;;;;;-0.41;79.64;101309.44;1759715;79;21224;-77
2020/12/04 11:18:54;;;;;;;36.85;25.30;;;;;;;-0.42;79.92;101313.56;1750695;79;21382;-77
2020/12/04 11:22:00;;;;;;;32.95;21.93;;;;;;;-0.44;79.75;101306.90;1751646;79;21446;-77
2020/12/04 11:25:09;;;;;;;43.68;27.82;;;;;;;-0.47;80.01;101310.22;1751615;79;21335;-77
2020/12/04 11:28:15;;;;;;;34.60;18.73;;;;;;;-0.49;80.05;101306.28;1752105;79;21228;-78
2020/12/04 11:31:25;;;;;;;39.67;26.90;;;;;;;-0.55;79.83;101316.88;1694735;82;22465;-77
2020/12/04 11:34:55;;;;;;;37.50;21.17;;;;;;;-0.59;80.02;101321.16;1713117;81;21346;-78
2020/12/04 11:38:03;;;;;;;34.73;21.30;;;;;;;-0.61;80.28;101316.32;1724601;81;21331;-78
2020/12/04 11:41:10;;;;;;;41.35;26.27;;;;;;;-0.63;80.15;101324.47;1720052;81;21958;-77
2020/12/04 11:44:22;;;;;;;31.90;19.67;;;;;;;-0.65;80.61;101321.01;1719976;81;21595;-80
2020/12/04 11:47:32;;;;;;;39.25;25.27;;;;;;;-0.61;80.77;101319.91;1700664;82;21334;-80
2020/12/04 11:50:49;;;;;;;32.03;20.48;;;;;;;-0.57;81.03;101319.24;1752285;79;21369;-80
2020/12/04 11:54:00;;;;;;;43.33;28.63;;;;;;;-0.52;81.09;101320.77;1752669;79;21209;-78
2020/12/04 11:57:07;;;;;;;25.50;17.55;;;;;;;-0.48;81.01;101318.76;1756754;79;22268;-79
2020/12/04 12:00:20;;;;;;;36.15;24.90;;;;;;;-0.45;80.79;101325.33;1752895;79;21342;-79
2020/12/04 12:03:31;;;;;;;35.75;20.75;;;;;;;-0.41;80.99;101328.73;1755189;79;21552;-78
2020/12/04 12:06:38;;;;;;;37.93;25.23;;;;;;;-0.37;81.36;101333.86;1755079;79;21534;-79
2020/12/04 12:09:51;;;;;;;31.77;20.23;;;;;;;-0.40;80.69;101331.81;1755196;79;21232;-78
2020/12/04 12:12:58;;;;;;;31.90;20.62;;;;;;;-0.47;80.83;101327.69;1689232;82;21302;-77
2020/12/04 12:16:06;;;;;;;41.70;29.65;;;;;;;-0.50;80.94;101330.08;1685593;82;22706;-79
2020/12/04 12:19:14;;;;;;;35.95;24.57;;;;;;;-0.50;81.24;101326.05;1691465;82;21248;-78
2020/12/04 12:22:20;;;;;;;39.40;25.40;;;;;;;-0.52;81.27;101327.93;1753949;79;21346;-79
2020/12/04 12:25:26;;;;;;;39.23;27.60;;;;;;;-0.47;81.38;101333.97;1745992;79;21336;-78
2020/12/04 12:28:33;;;;;;;32.55;18.27;;;;;;;-0.43;81.52;101328.79;1751356;79;21626;-78
2020/12/04 12:31:44;;;;;;;29.42;17.90;;;;;;;-0.44;81.71;101327.06;1756011;79;21339;-79
2020/12/04 12:38:13;;;;;;;27.35;15.68;;;;;;;-0.57;81.69;101338.05;1750755;79;21337;-77
2020/12/04 12:41:24;;;;;;;31.33;15.08;;;;;;;-0.60;81.86;101342.27;1761979;79;21389;-78
2020/12/04 12:44:28;;;;;;;36.00;22.67;;;;;;;-0.61;82.04;101335.13;1763674;79;21490;-76
2020/12/04 12:47:35;;;;;;;41.30;26.33;;;;;;;-0.66;81.94;101335.84;1700574;82;21204;-77
2020/12/04 12:50:42;;;;;;;35.98;24.80;;;;;;;-0.81;82.02;101331.66;1751773;79;21352;-79
2020/12/04 12:53:50;;;;;;;38.95;26.62;;;;;;;-0.86;82.44;101327.00;1760517;79;21346;-77
2020/12/04 12:56:57;;;;;;;28.62;18.85;;;;;;;-0.81;82.80;101326.28;1754008;79;21314;-78
2020/12/04 13:00:04;;;;;;;30.62;17.23;;;;;;;-0.78;83.14;101331.99;1708401;81;21375;-78
2020/12/04 13:03:09;;;;;;;27.52;16.17;;;;;;;-0.81;83.16;101337.03;1755215;79;21525;-79
2020/12/04 13:06:15;;;;;;;29.45;16.93;;;;;;;-0.82;83.28;101331.27;1761311;79;21284;-77
2020/12/04 13:09:20;;;;;;;31.05;18.80;;;;;;;-0.84;83.21;101338.55;1761002;79;21295;-77
2020/12/04 13:12:28;;;;;;;32.40;18.92;;;;;;;-0.89;83.26;101336.58;1750380;79;21888;-77
2020/12/04 13:15:34;;;;;;;26.00;14.63;;;;;;;-0.96;83.18;101340.98;1752878;79;21315;-77
2020/12/04 13:18:39;;;;;;;26.27;16.25;;;;;;;-1.02;83.50;101347.55;1710262;81;21391;-77
2020/12/04 13:22:03;;;;;;;33.73;20.32;;;;;;;-1.13;83.43;101351.22;1774564;79;21479;-77
2020/12/04 13:25:11;;;;;;;30.00;18.20;;;;;;;-1.25;83.81;101347.81;1754353;79;21334;-77
2020/12/04 13:28:16;;;;;;;39.25;15.68;;;;;;;-1.33;84.33;101346.36;1757965;78;21161;-77
2020/12/04 13:31:25;;;;;;;40.33;24.63;;;;;;;-1.35;84.98;101346.92;1761976;79;21295;-77
2020/12/04 13:34:38;;;;;;;39.78;26.57;;;;;;;-1.34;85.27;101343.29;1751493;80;21875;-77
2020/12/04 13:37:46;;;;;;;28.50;16.65;;;;;;;-1.35;85.44;101346.06;1759014;79;21223;-78
2020/12/04 13:40:52;;;;;;;28.23;14.38;;;;;;;-1.36;85.66;101357.27;1762298;79;21325;-76
2020/12/04 13:44:00;;;;;;;27.90;15.78;;;;;;;-1.36;85.82;101361.30;1764153;79;21301;-77
2020/12/04 13:47:07;;;;;;;39.50;23.98;;;;;;;-1.38;85.91;101361.83;1752596;79;21320;-77
2020/12/04 13:50:13;;;;;;;23.25;14.03;;;;;;;-1.36;85.99;101357.75;1696461;82;21395;-77
2020/12/04 13:53:20;;;;;;;33.45;17.70;;;;;;;-1.35;86.22;101360.82;1720348;81;21338;-77
2020/12/04 13:56:26;;;;;;;29.37;14.33;;;;;;;-1.36;86.25;101353.72;1725974;81;21984;-77
2020/12/04 13:59:33;;;;;;;32.25;15.93;;;;;;;-1.38;86.28;101356.45;1742250;80;21705;-77
2020/12/04 14:02:40;;;;;;;26.57;15.25;;;;;;;-1.39;86.31;101364.59;1757884;79;21307;-78
2020/12/04 14:05:48;;;;;;;34.80;20.17;;;;;;;-1.38;86.39;101356.94;1760315;79;21656;-77
2020/12/04 14:08:58;;;;;;;41.73;26.65;;;;;;;-1.43;86.36;101361.66;1754077;80;21377;-76
2020/12/04 14:12:02;;;;;;;39.73;23.22;;;;;;;-1.48;86.55;101363.69;1695661;82;21360;-77
2020/12/04 14:15:07;;;;;;;34.48;22.10;;;;;;;-1.49;86.94;101364.17;1716496;81;21298;-77
2020/12/04 14:18:12;;;;;;;30.20;16.07;;;;;;;-1.47;87.34;101364.95;1762234;79;21314;-78
2020/12/04 14:21:20;;;;;;;28.75;14.25;;;;;;;-1.44;87.51;101366.16;1750018;79;21594;-77
2020/12/04 14:24:26;;;;;;;33.95;20.27;;;;;;;-1.47;87.32;101371.66;1768871;79;22746;-77
2020/12/04 14:27:33;;;;;;;27.62;17.45;;;;;;;-1.49;87.33;101365.98;1709336;82;21410;-78
2020/12/04 14:30:39;;;;;;;32.78;18.70;;;;;;;-1.57;87.32;101361.84;1751938;80;21873;-78
2020/12/04 14:33:46;;;;;;;35.17;18.60;;;;;;;-1.60;87.43;101372.73;1763531;79;21327;-78
2020/12/04 14:36:52;;;;;;;37.00;16.52;;;;;;;-1.62;87.64;101381.31;1758170;79;21641;-77
2020/12/04 14:40:42;;;;;;;30.32;15.70;;;;;;;-1.65;87.85;101386.81;1746449;79;21321;-77
2020/12/04 14:43:10;;;;;;;30.27;15.98;;;;;;;-1.67;88.11;101377.98;1704482;82;21196;-77
2020/12/04 14:46:18;;;;;;;35.50;17.00;;;;;;;-1.68;88.19;101388.80;1756162;79;21321;-77
2020/12/04 14:49:24;;;;;;;31.52;19.87;;;;;;;-1.69;88.25;101385.72;1747457;80;21331;-76
2020/12/04 14:52:29;;;;;;;36.88;22.02;;;;;;;-1.74;88.46;101373.86;1760938;80;21300;-79
2020/12/04 14:55:35;;;;;;;36.98;23.25;;;;;;;-1.76;88.69;101381.09;1754000;79;21885;-76
2020/12/04 14:58:41;;;;;;;46.40;28.02;;;;;;;-1.77;88.78;101382.05;1715788;82;21957;-76
2020/12/04 15:01:47;;;;;;;48.20;33.30;;;;;;;-1.78;88.78;101378.10;1760902;80;22537;-76
2020/12/04 15:04:54;;;;;;;39.88;24.50;;;;;;;-1.82;88.98;101388.96;1742419;80;21391;-76
2020/12/04 15:08:01;;;;;;;39.08;17.73;;;;;;;-1.83;89.23;101374.30;1741407;80;21236;-76
2020/12/04 15:11:08;;;;;;;28.20;17.12;;;;;;;-1.82;89.46;101380.91;1743695;80;21276;-77
2020/12/04 15:14:13;;;;;;;38.80;23.87;;;;;;;-1.76;89.62;101385.59;1749944;80;21320;-77
2020/12/04 15:17:19;;;;;;;36.80;16.95;;;;;;;-1.74;89.58;101381.02;1748832;80;21350;-77
2020/12/04 15:20:26;;;;;;;30.02;16.10;;;;;;;-1.79;89.55;101393.30;1716906;82;21916;-77
2020/12/04 15:23:34;;;;;;;31.57;18.45;;;;;;;-1.81;89.63;101385.33;1756736;81;21864;-77
2020/12/04 15:26:41;;;;;;;31.80;18.40;;;;;;;-1.77;89.74;101401.30;1756060;80;21312;-77
2020/12/04 15:29:46;;;;;;;31.37;16.37;;;;;;;-1.78;89.71;101384.81;1759765;80;21206;-78
2020/12/04 15:32:52;;;;;;;33.35;18.90;;;;;;;-1.77;89.80;101398.61;1761850;80;21208;-77
2020/12/04 15:35:59;;;;;;;42.25;18.32;;;;;;;-1.81;89.98;101385.80;1745762;80;21325;-77
2020/12/04 15:39:09;;;;;;;29.30;16.87;;;;;;;-1.82;90.13;101397.01;1749692;80;21264;-77
2020/12/04 15:42:18;;;;;;;28.05;16.50;;;;;;;-1.80;90.34;101400.48;1718513;82;21236;-77
2020/12/04 15:45:24;;;;;;;;;;;;;;;-1.77;90.43;101400.82;1764144;80;21334;-77
2020/12/04 15:48:31;;;;;;;32.48;20.62;;;;;;;-1.75;90.55;101400.73;1757373;79;20666;-77
2020/12/04 15:51:36;;;;;;;34.95;19.55;;;;;;;-1.73;90.61;101408.27;1719747;82;21236;-77
2020/12/04 15:54:43;;;;;;;38.35;22.65;;;;;;;-1.72;90.65;101401.47;1784498;79;21240;-77
2020/12/04 15:57:49;;;;;;;34.58;16.90;;;;;;;-1.74;90.69;101400.69;1790263;79;21874;-77
2020/12/04 16:00:56;;;;;;;30.70;16.10;;;;;;;-1.75;90.76;101401.61;1778626;79;21851;-78
2020/12/04 16:04:01;;;;;;;37.03;23.30;;;;;;;-1.68;90.91;101399.52;1781637;79;21557;-77
2020/12/04 16:07:10;;;;;;;34.55;16.80;;;;;;;-1.70;90.84;101408.97;1773358;79;21315;-77
2020/12/04 16:10:16;;;;;;;75.50;36.42;;;;;;;-1.74;90.87;101401.12;1770858;79;21196;-77
2020/12/04 16:13:22;;;;;;;37.42;19.67;;;;;;;-1.78;91.02;101412.97;1770977;79;21212;-77
2020/12/04 16:16:29;;;;;;;36.17;17.95;;;;;;;-1.78;91.23;101416.99;1793443;79;21303;-78
2020/12/04 16:19:34;;;;;;;31.75;19.17;;;;;;;-1.78;91.43;101421.02;1790544;79;21319;-77
2020/12/04 16:22:40;;;;;;;131.47;104.95;;;;;;;-1.73;91.63;101414.97;1776427;79;21314;-77
2020/12/04 16:25:47;;;;;;;68.10;48.33;;;;;;;-1.70;91.70;101421.52;1771023;79;21298;-77
2020/12/04 16:28:54;;;;;;;46.18;29.85;;;;;;;-1.73;91.75;101418.52;1785506;79;21743;-77
2020/12/04 16:32:01;;;;;;;41.20;26.52;;;;;;;-1.72;91.82;101430.12;1787354;79;22665;-78
2020/12/04 16:35:07;;;;;;;40.58;22.82;;;;;;;-1.71;91.96;101428.69;1745643;80;21306;-77
2020/12/04 16:38:13;;;;;;;66.28;44.08;;;;;;;-1.72;92.07;101427.43;1758496;80;21302;-77
2020/12/04 16:41:20;;;;;;;69.35;43.58;;;;;;;-1.69;92.13;101428.64;1748560;80;21224;-78
2020/12/04 16:44:25;;;;;;;63.95;40.80;;;;;;;-1.68;92.14;101418.30;1747094;81;21318;-78
2020/12/04 16:47:33;;;;;;;48.73;27.42;;;;;;;-1.70;92.18;101426.87;1747353;80;21222;-75
2020/12/04 16:50:39;;;;;;;59.45;39.30;;;;;;;-1.67;92.22;101429.43;1782086;79;21221;-77
2020/12/04 16:53:45;;;;;;;59.27;34.73;;;;;;;-1.65;92.22;101420.83;1765038;80;21898;-77
2020/12/04 16:56:52;;;;;;;68.30;47.65;;;;;;;-1.65;92.20;101427.53;1761746;80;21347;-78
2020/12/04 16:59:57;;;;;;;62.78;44.30;;;;;;;-1.63;92.17;101432.38;1767642;80;21213;-78